Main page
METAR-TAF:

METAR-TAF

Airports :

George M. Bryan Airport

Starkville, Mississippi, United States

latitude: 33-25-59N, longitude: 088-50-55W, elevation: 331 ft

Current weather observation

The report was made 15 minutes ago, at 02:55 UTC
Calm wind
Temperature 81°F
Humidity 79%
Pressure 29.90 in. Hg
Visibility: 10 miles
Clear sky

METAR: KSTF 250255Z AUTO 00000KT 10SM CLR 27/23 A2990 RMK AO2

Time: 22:10 (03:10 UTC)


TAF: missing

Weather observations and forecasts of more than 4000 airports (METAR and TAF reports).

The available stations are represented by yellow and red dots on the map.

Hover mouse over dot to see the name of the station.

Then click to see weather observations and forecasts.

To change the map : click on the green buttons with a black cross to zoom in, on the green button with a dash to zoom out, or on the green arrows for adjacent maps.


METAR-TAF: